sensor_id;sensor_type;location;lat;lon;timestamp;temperature;humidity
44843;DHT22;31884;52.538;13.820;2022-09-17T00:00:56;11.70;99.90
44843;DHT22;31884;52.538;13.820;2022-09-17T00:03:22;11.70;99.90
44843;DHT22;31884;52.538;13.820;2022-09-17T00:05:49;11.80;99.90
44843;DHT22;31884;52.538;13.820;2022-09-17T00:08:14;11.80;99.90
44843;DHT22;31884;52.538;13.820;2022-09-17T00:10:42;11.70;99.90
44843;DHT22;31884;52.538;13.820;2022-09-17T00:13:09;11.80;99.90
44843;DHT22;31884;52.538;13.820;2022-09-17T00:15:41;11.80;99.90
44843;DHT22;31884;52.538;13.820;2022-09-17T00:18:07;11.70;99.90
44843;DHT22;31884;52.538;13.820;2022-09-17T00:20:46;11.80;99.90
44843;DHT22;31884;52.538;13.820;2022-09-17T00:23:13;11.80;99.90
44843;DHT22;31884;52.538;13.820;2022-09-17T00:25:40;11.80;99.90
44843;DHT22;31884;52.538;13.820;2022-09-17T00:28:05;11.80;99.90
44843;DHT22;31884;52.538;13.820;2022-09-17T00:30:31;11.80;99.90
44843;DHT22;31884;52.538;13.820;2022-09-17T00:32:56;11.90;99.90
44843;DHT22;31884;52.538;13.820;2022-09-17T00:35:24;11.90;99.90
44843;DHT22;31884;52.538;13.820;2022-09-17T00:37:49;11.90;99.90
44843;DHT22;31884;52.538;13.820;2022-09-17T00:40:15;11.90;99.90
44843;DHT22;31884;52.538;13.820;2022-09-17T00:42:41;11.90;99.90
44843;DHT22;31884;52.538;13.820;2022-09-17T00:45:07;11.90;99.90
44843;DHT22;31884;52.538;13.820;2022-09-17T00:47:46;11.90;99.90
44843;DHT22;31884;52.538;13.820;2022-09-17T00:50:17;11.90;99.90
44843;DHT22;31884;52.538;13.820;2022-09-17T00:52:58;11.90;99.90
44843;DHT22;31884;52.538;13.820;2022-09-17T00:55:35;11.90;99.90
44843;DHT22;31884;52.538;13.820;2022-09-17T00:58:05;12.00;99.90
44843;DHT22;31884;52.538;13.820;2022-09-17T01:00:31;12.00;99.90
44843;DHT22;31884;52.538;13.820;2022-09-17T01:02:57;12.00;99.90
44843;DHT22;31884;52.538;13.820;2022-09-17T01:05:46;12.00;99.90
44843;DHT22;31884;52.538;13.820;2022-09-17T01:16:17;12.00;99.90
44843;DHT22;31884;52.538;13.820;2022-09-17T01:21:34;12.00;99.90
44843;DHT22;31884;52.538;13.820;2022-09-17T01:35:32;12.00;99.90
44843;DHT22;31884;52.538;13.820;2022-09-17T01:38:09;12.00;99.90
44843;DHT22;31884;52.538;13.820;2022-09-17T01:40:50;12.00;99.90
44843;DHT22;31884;52.538;13.820;2022-09-17T01:43:29;12.00;99.90
44843;DHT22;31884;52.538;13.820;2022-09-17T01:46:09;12.00;99.90
44843;DHT22;31884;52.538;13.820;2022-09-17T01:48:40;12.00;99.90
44843;DHT22;31884;52.538;13.820;2022-09-17T01:51:11;12.00;99.90
44843;DHT22;31884;52.538;13.820;2022-09-17T01:54:02;12.00;99.90
44843;DHT22;31884;52.538;13.820;2022-09-17T01:56:37;12.00;99.90
44843;DHT22;31884;52.538;13.820;2022-09-17T01:59:21;12.00;99.90
44843;DHT22;31884;52.538;13.820;2022-09-17T02:01:52;12.10;99.90
44843;DHT22;31884;52.538;13.820;2022-09-17T02:06:54;12.00;99.90
44843;DHT22;31884;52.538;13.820;2022-09-17T02:09:30;12.10;99.90
44843;DHT22;31884;52.538;13.820;2022-09-17T02:11:59;12.10;99.90
44843;DHT22;31884;52.538;13.820;2022-09-17T02:14:38;12.10;99.90
44843;DHT22;31884;52.538;13.820;2022-09-17T02:17:21;12.10;99.90
44843;DHT22;31884;52.538;13.820;2022-09-17T02:19:49;12.10;99.90
44843;DHT22;31884;52.538;13.820;2022-09-17T02:27:36;12.10;99.90
44843;DHT22;31884;52.538;13.820;2022-09-17T02:30:04;12.10;99.90
44843;DHT22;31884;52.538;13.820;2022-09-17T02:32:30;12.10;99.90
44843;DHT22;31884;52.538;13.820;2022-09-17T02:34:55;12.10;99.90
44843;DHT22;31884;52.538;13.820;2022-09-17T02:37:21;12.10;99.90
44843;DHT22;31884;52.538;13.820;2022-09-17T02:39:46;12.10;99.90
44843;DHT22;31884;52.538;13.820;2022-09-17T02:42:20;12.10;99.90
44843;DHT22;31884;52.538;13.820;2022-09-17T02:47:27;12.10;99.90
44843;DHT22;31884;52.538;13.820;2022-09-17T02:57:54;12.10;99.90
44843;DHT22;31884;52.538;13.820;2022-09-17T03:00:23;12.10;99.90
44843;DHT22;31884;52.538;13.820;2022-09-17T03:03:01;12.20;99.90
44843;DHT22;31884;52.538;13.820;2022-09-17T03:05:29;12.20;99.90
44843;DHT22;31884;52.538;13.820;2022-09-17T03:07:55;12.20;99.90
44843;DHT22;31884;52.538;13.820;2022-09-17T03:10:22;12.20;99.90
44843;DHT22;31884;52.538;13.820;2022-09-17T03:12:47;12.20;99.90
44843;DHT22;31884;52.538;13.820;2022-09-17T03:15:13;12.20;99.90
44843;DHT22;31884;52.538;13.820;2022-09-17T03:17:39;12.20;99.90
44843;DHT22;31884;52.538;13.820;2022-09-17T03:20:05;12.20;99.90
44843;DHT22;31884;52.538;13.820;2022-09-17T03:22:30;12.20;99.90
44843;DHT22;31884;52.538;13.820;2022-09-17T03:24:56;12.20;99.90
44843;DHT22;31884;52.538;13.820;2022-09-17T03:27:21;12.20;99.90
44843;DHT22;31884;52.538;13.820;2022-09-17T03:29:47;12.20;99.90
44843;DHT22;31884;52.538;13.820;2022-09-17T03:32:12;12.20;99.90
44843;DHT22;31884;52.538;13.820;2022-09-17T03:34:38;12.10;99.90
44843;DHT22;31884;52.538;13.820;2022-09-17T03:37:03;12.20;99.90
44843;DHT22;31884;52.538;13.820;2022-09-17T03:39:29;12.20;99.90
44843;DHT22;31884;52.538;13.820;2022-09-17T03:41:55;12.10;99.90
44843;DHT22;31884;52.538;13.820;2022-09-17T03:44:20;12.20;99.90
44843;DHT22;31884;52.538;13.820;2022-09-17T03:46:48;12.20;99.90
44843;DHT22;31884;52.538;13.820;2022-09-17T03:49:14;12.20;99.90
44843;DHT22;31884;52.538;13.820;2022-09-17T03:51:39;12.20;99.90
44843;DHT22;31884;52.538;13.820;2022-09-17T03:54:05;12.20;99.90
44843;DHT22;31884;52.538;13.820;2022-09-17T03:56:31;12.20;99.90
44843;DHT22;31884;52.538;13.820;2022-09-17T03:59:00;12.20;99.90
44843;DHT22;31884;52.538;13.820;2022-09-17T04:01:26;12.20;99.90
44843;DHT22;31884;52.538;13.820;2022-09-17T04:03:52;12.20;99.90
44843;DHT22;31884;52.538;13.820;2022-09-17T04:06:17;12.20;99.90
44843;DHT22;31884;52.538;13.820;2022-09-17T04:08:43;12.20;99.90
44843;DHT22;31884;52.538;13.820;2022-09-17T04:11:09;12.20;99.90
44843;DHT22;31884;52.538;13.820;2022-09-17T04:13:35;12.20;99.90
44843;DHT22;31884;52.538;13.820;2022-09-17T04:16:01;12.20;99.90
44843;DHT22;31884;52.538;13.820;2022-09-17T04:18:26;12.20;99.90
44843;DHT22;31884;52.538;13.820;2022-09-17T04:20:52;12.20;99.90
44843;DHT22;31884;52.538;13.820;2022-09-17T04:23:17;12.20;99.90
44843;DHT22;31884;52.538;13.820;2022-09-17T04:25:43;12.20;99.90
44843;DHT22;31884;52.538;13.820;2022-09-17T04:28:08;12.20;99.90
44843;DHT22;31884;52.538;13.820;2022-09-17T04:30:34;12.20;99.90
44843;DHT22;31884;52.538;13.820;2022-09-17T04:33:00;12.20;99.90
44843;DHT22;31884;52.538;13.820;2022-09-17T04:35:26;12.20;99.90
44843;DHT22;31884;52.538;13.820;2022-09-17T04:37:53;12.20;99.90
44843;DHT22;31884;52.538;13.820;2022-09-17T04:40:19;12.20;99.90
44843;DHT22;31884;52.538;13.820;2022-09-17T04:42:44;12.20;99.90
44843;DHT22;31884;52.538;13.820;2022-09-17T04:45:10;12.20;99.90
44843;DHT22;31884;52.538;13.820;2022-09-17T04:47:38;12.30;99.90
44843;DHT22;31884;52.538;13.820;2022-09-17T04:50:04;12.30;99.90
44843;DHT22;31884;52.538;13.820;2022-09-17T04:52:29;12.30;99.90
44843;DHT22;31884;52.538;13.820;2022-09-17T04:54:55;12.30;99.90
44843;DHT22;31884;52.538;13.820;2022-09-17T04:57:20;12.30;99.90
44843;DHT22;31884;52.538;13.820;2022-09-17T04:59:47;12.30;99.90
44843;DHT22;31884;52.538;13.820;2022-09-17T05:02:13;12.30;99.90
44843;DHT22;31884;52.538;13.820;2022-09-17T05:04:38;12.30;99.90
44843;DHT22;31884;52.538;13.820;2022-09-17T05:07:04;12.40;99.90
44843;DHT22;31884;52.538;13.820;2022-09-17T05:09:30;12.40;99.90
44843;DHT22;31884;52.538;13.820;2022-09-17T05:11:55;12.40;99.90
44843;DHT22;31884;52.538;13.820;2022-09-17T05:14:21;12.40;99.90
44843;DHT22;31884;52.538;13.820;2022-09-17T05:16:46;12.40;99.90
44843;DHT22;31884;52.538;13.820;2022-09-17T05:19:11;12.40;99.90
44843;DHT22;31884;52.538;13.820;2022-09-17T05:21:37;12.40;99.90
44843;DHT22;31884;52.538;13.820;2022-09-17T05:24:03;12.40;99.90
44843;DHT22;31884;52.538;13.820;2022-09-17T05:26:28;12.40;99.90
44843;DHT22;31884;52.538;13.820;2022-09-17T05:28:54;12.50;99.90
44843;DHT22;31884;52.538;13.820;2022-09-17T05:31:19;12.50;99.90
44843;DHT22;31884;52.538;13.820;2022-09-17T05:33:45;12.50;99.90
44843;DHT22;31884;52.538;13.820;2022-09-17T05:36:10;12.50;99.90
44843;DHT22;31884;52.538;13.820;2022-09-17T05:38:36;12.50;99.90
44843;DHT22;31884;52.538;13.820;2022-09-17T05:41:05;12.50;99.90
44843;DHT22;31884;52.538;13.820;2022-09-17T05:43:31;12.50;99.90
44843;DHT22;31884;52.538;13.820;2022-09-17T05:46:03;12.50;99.90
44843;DHT22;31884;52.538;13.820;2022-09-17T05:48:30;12.60;99.90
44843;DHT22;31884;52.538;13.820;2022-09-17T05:50:56;12.50;99.90
44843;DHT22;31884;52.538;13.820;2022-09-17T05:53:21;12.60;99.90
44843;DHT22;31884;52.538;13.820;2022-09-17T05:55:47;12.60;99.90
44843;DHT22;31884;52.538;13.820;2022-09-17T05:58:15;12.60;99.90
44843;DHT22;31884;52.538;13.820;2022-09-17T06:00:41;12.60;99.90
44843;DHT22;31884;52.538;13.820;2022-09-17T06:03:09;12.60;99.90
44843;DHT22;31884;52.538;13.820;2022-09-17T06:05:35;12.60;99.90
44843;DHT22;31884;52.538;13.820;2022-09-17T06:08:01;12.70;99.90
44843;DHT22;31884;52.538;13.820;2022-09-17T06:10:26;12.70;99.90
44843;DHT22;31884;52.538;13.820;2022-09-17T06:12:56;12.80;99.90
44843;DHT22;31884;52.538;13.820;2022-09-17T06:15:22;12.80;99.90
44843;DHT22;31884;52.538;13.820;2022-09-17T06:17:47;12.90;99.90
44843;DHT22;31884;52.538;13.820;2022-09-17T06:20:13;13.00;99.90
44843;DHT22;31884;52.538;13.820;2022-09-17T06:22:40;13.10;99.90
44843;DHT22;31884;52.538;13.820;2022-09-17T06:25:06;13.20;99.90
44843;DHT22;31884;52.538;13.820;2022-09-17T06:27:33;13.30;99.90
44843;DHT22;31884;52.538;13.820;2022-09-17T06:29:59;13.70;99.90
44843;DHT22;31884;52.538;13.820;2022-09-17T06:32:25;14.30;99.90
44843;DHT22;31884;52.538;13.820;2022-09-17T06:34:50;14.90;99.90
44843;DHT22;31884;52.538;13.820;2022-09-17T06:37:16;15.10;99.90
44843;DHT22;31884;52.538;13.820;2022-09-17T06:39:42;15.00;99.90
44843;DHT22;31884;52.538;13.820;2022-09-17T06:42:07;14.80;99.90
44843;DHT22;31884;52.538;13.820;2022-09-17T06:44:33;14.60;99.90
44843;DHT22;31884;52.538;13.820;2022-09-17T06:46:58;14.50;99.90
44843;DHT22;31884;52.538;13.820;2022-09-17T06:49:24;14.40;99.90
44843;DHT22;31884;52.538;13.820;2022-09-17T06:51:49;14.30;99.90
44843;DHT22;31884;52.538;13.820;2022-09-17T06:54:15;14.10;99.90
44843;DHT22;31884;52.538;13.820;2022-09-17T06:56:40;14.10;99.90
44843;DHT22;31884;52.538;13.820;2022-09-17T06:59:06;14.10;99.90
44843;DHT22;31884;52.538;13.820;2022-09-17T07:01:31;14.10;99.90
44843;DHT22;31884;52.538;13.820;2022-09-17T07:03:57;14.20;99.90
44843;DHT22;31884;52.538;13.820;2022-09-17T07:06:23;14.20;99.90
44843;DHT22;31884;52.538;13.820;2022-09-17T07:08:48;14.20;99.90
44843;DHT22;31884;52.538;13.820;2022-09-17T07:11:14;14.30;99.90
44843;DHT22;31884;52.538;13.820;2022-09-17T07:13:40;14.40;99.90
44843;DHT22;31884;52.538;13.820;2022-09-17T07:16:06;14.60;99.90
44843;DHT22;31884;52.538;13.820;2022-09-17T07:18:32;14.70;99.90
44843;DHT22;31884;52.538;13.820;2022-09-17T07:21:03;14.60;99.90
44843;DHT22;31884;52.538;13.820;2022-09-17T07:23:30;14.70;99.90
44843;DHT22;31884;52.538;13.820;2022-09-17T07:25:58;15.00;99.90
44843;DHT22;31884;52.538;13.820;2022-09-17T07:28:25;15.50;99.90
44843;DHT22;31884;52.538;13.820;2022-09-17T07:30:51;15.90;99.90
44843;DHT22;31884;52.538;13.820;2022-09-17T07:33:19;16.00;99.90
44843;DHT22;31884;52.538;13.820;2022-09-17T07:36:01;15.90;99.90
44843;DHT22;31884;52.538;13.820;2022-09-17T07:38:29;15.80;99.90
44843;DHT22;31884;52.538;13.820;2022-09-17T07:41:00;15.60;99.90
44843;DHT22;31884;52.538;13.820;2022-09-17T07:43:27;15.70;99.90
44843;DHT22;31884;52.538;13.820;2022-09-17T07:45:55;15.70;99.90
44843;DHT22;31884;52.538;13.820;2022-09-17T07:48:21;15.70;99.90
44843;DHT22;31884;52.538;13.820;2022-09-17T07:50:46;15.70;99.90
44843;DHT22;31884;52.538;13.820;2022-09-17T07:53:12;15.50;99.80
44843;DHT22;31884;52.538;13.820;2022-09-17T07:55:38;15.40;99.90
44843;DHT22;31884;52.538;13.820;2022-09-17T07:58:04;15.30;99.90
44843;DHT22;31884;52.538;13.820;2022-09-17T08:00:30;15.20;99.90
44843;DHT22;31884;52.538;13.820;2022-09-17T08:02:56;15.10;98.20
44843;DHT22;31884;52.538;13.820;2022-09-17T08:05:22;14.90;99.80
44843;DHT22;31884;52.538;13.820;2022-09-17T08:07:53;14.80;98.60
44843;DHT22;31884;52.538;13.820;2022-09-17T08:10:19;14.60;98.20
44843;DHT22;31884;52.538;13.820;2022-09-17T08:12:47;14.60;99.90
44843;DHT22;31884;52.538;13.820;2022-09-17T08:15:14;14.60;99.90
44843;DHT22;31884;52.538;13.820;2022-09-17T08:17:45;14.60;99.90
44843;DHT22;31884;52.538;13.820;2022-09-17T08:20:13;14.60;99.90
44843;DHT22;31884;52.538;13.820;2022-09-17T08:22:39;14.60;99.80
44843;DHT22;31884;52.538;13.820;2022-09-17T08:25:05;14.60;99.90
44843;DHT22;31884;52.538;13.820;2022-09-17T08:27:31;14.60;99.20
44843;DHT22;31884;52.538;13.820;2022-09-17T08:29:57;14.70;99.30
44843;DHT22;31884;52.538;13.820;2022-09-17T08:32:23;14.80;98.10
44843;DHT22;31884;52.538;13.820;2022-09-17T08:34:48;14.90;97.40
44843;DHT22;31884;52.538;13.820;2022-09-17T08:37:14;15.10;97.40
44843;DHT22;31884;52.538;13.820;2022-09-17T08:39:39;15.10;97.10
44843;DHT22;31884;52.538;13.820;2022-09-17T08:42:45;15.10;97.40
44843;DHT22;31884;52.538;13.820;2022-09-17T08:45:14;15.10;94.30
44843;DHT22;31884;52.538;13.820;2022-09-17T08:47:43;15.00;96.50
44843;DHT22;31884;52.538;13.820;2022-09-17T08:50:25;15.00;95.90
44843;DHT22;31884;52.538;13.820;2022-09-17T08:53:20;15.00;94.90
44843;DHT22;31884;52.538;13.820;2022-09-17T09:01:59;15.50;91.40
44843;DHT22;31884;52.538;13.820;2022-09-17T09:04:45;15.70;90.80
44843;DHT22;31884;52.538;13.820;2022-09-17T09:07:29;15.90;87.70
44843;DHT22;31884;52.538;13.820;2022-09-17T09:12:34;16.30;76.10
44843;DHT22;31884;52.538;13.820;2022-09-17T09:15:42;16.50;82.80
44843;DHT22;31884;52.538;13.820;2022-09-17T09:18:20;17.10;75.60
44843;DHT22;31884;52.538;13.820;2022-09-17T09:20:53;17.50;79.20
44843;DHT22;31884;52.538;13.820;2022-09-17T09:23:54;17.80;67.80
44843;DHT22;31884;52.538;13.820;2022-09-17T09:26:21;18.00;64.00
44843;DHT22;31884;52.538;13.820;2022-09-17T09:31:40;18.70;65.80
44843;DHT22;31884;52.538;13.820;2022-09-17T09:34:09;18.80;52.00
44843;DHT22;31884;52.538;13.820;2022-09-17T09:36:37;18.80;56.60
44843;DHT22;31884;52.538;13.820;2022-09-17T09:39:20;18.90;54.20
44843;DHT22;31884;52.538;13.820;2022-09-17T09:41:58;19.20;52.80
44843;DHT22;31884;52.538;13.820;2022-09-17T09:44:25;19.60;52.60
44843;DHT22;31884;52.538;13.820;2022-09-17T09:52:47;19.40;48.20
44843;DHT22;31884;52.538;13.820;2022-09-17T09:58:16;19.70;43.50
44843;DHT22;31884;52.538;13.820;2022-09-17T10:00:44;19.80;47.70
44843;DHT22;31884;52.538;13.820;2022-09-17T10:03:17;19.80;49.80
44843;DHT22;31884;52.538;13.820;2022-09-17T10:06:03;19.60;47.00
44843;DHT22;31884;52.538;13.820;2022-09-17T10:08:34;19.10;51.70
44843;DHT22;31884;52.538;13.820;2022-09-17T10:13:39;18.30;57.40
44843;DHT22;31884;52.538;13.820;2022-09-17T10:16:22;17.90;59.60
44843;DHT22;31884;52.538;13.820;2022-09-17T10:19:10;17.70;60.00
44843;DHT22;31884;52.538;13.820;2022-09-17T10:21:36;17.60;62.70
44843;DHT22;31884;52.538;13.820;2022-09-17T10:24:03;17.30;60.90
44843;DHT22;31884;52.538;13.820;2022-09-17T10:26:34;17.10;62.40
44843;DHT22;31884;52.538;13.820;2022-09-17T10:29:15;17.20;63.80
44843;DHT22;31884;52.538;13.820;2022-09-17T10:31:53;17.20;57.60
44843;DHT22;31884;52.538;13.820;2022-09-17T10:34:27;17.10;60.80
44843;DHT22;31884;52.538;13.820;2022-09-17T10:36:55;17.30;61.60
44843;DHT22;31884;52.538;13.820;2022-09-17T10:39:35;17.40;60.50
44843;DHT22;31884;52.538;13.820;2022-09-17T10:42:17;17.60;56.70
44843;DHT22;31884;52.538;13.820;2022-09-17T10:44:57;17.70;54.50
44843;DHT22;31884;52.538;13.820;2022-09-17T10:47:27;17.60;53.40
44843;DHT22;31884;52.538;13.820;2022-09-17T10:52:34;17.90;55.00
44843;DHT22;31884;52.538;13.820;2022-09-17T10:55:30;18.10;52.40
44843;DHT22;31884;52.538;13.820;2022-09-17T11:03:42;18.10;48.40
44843;DHT22;31884;52.538;13.820;2022-09-17T11:09:18;18.20;50.60
44843;DHT22;31884;52.538;13.820;2022-09-17T11:17:12;18.10;49.10
44843;DHT22;31884;52.538;13.820;2022-09-17T11:20:04;17.60;56.80
44843;DHT22;31884;52.538;13.820;2022-09-17T11:34:00;16.20;69.70
44843;DHT22;31884;52.538;13.820;2022-09-17T11:40:11;16.20;73.90
44843;DHT22;31884;52.538;13.820;2022-09-17T11:42:11;16.40;73.40
44843;DHT22;31884;52.538;13.820;2022-09-17T11:44:50;16.60;77.00
44843;DHT22;31884;52.538;13.820;2022-09-17T11:47:39;16.70;74.60
44843;DHT22;31884;52.538;13.820;2022-09-17T11:55:37;17.30;71.60
44843;DHT22;31884;52.538;13.820;2022-09-17T11:58:16;17.40;70.20
44843;DHT22;31884;52.538;13.820;2022-09-17T12:01:00;17.50;69.50
44843;DHT22;31884;52.538;13.820;2022-09-17T12:03:41;17.60;67.40
44843;DHT22;31884;52.538;13.820;2022-09-17T12:06:14;17.70;64.70
44843;DHT22;31884;52.538;13.820;2022-09-17T12:09:00;17.80;62.00
44843;DHT22;31884;52.538;13.820;2022-09-17T12:14:04;17.70;55.40
44843;DHT22;31884;52.538;13.820;2022-09-17T12:21:54;17.40;54.30
44843;DHT22;31884;52.538;13.820;2022-09-17T12:24:26;17.10;58.70
44843;DHT22;31884;52.538;13.820;2022-09-17T12:27:08;16.80;61.00
44843;DHT22;31884;52.538;13.820;2022-09-17T12:33:01;16.70;63.50
44843;DHT22;31884;52.538;13.820;2022-09-17T12:38:40;16.80;63.50
44843;DHT22;31884;52.538;13.820;2022-09-17T12:41:12;16.90;61.30
44843;DHT22;31884;52.538;13.820;2022-09-17T12:44:23;17.10;61.90
44843;DHT22;31884;52.538;13.820;2022-09-17T12:55:23;16.90;55.60
44843;DHT22;31884;52.538;13.820;2022-09-17T12:57:53;16.80;55.40
44843;DHT22;31884;52.538;13.820;2022-09-17T13:00:20;16.60;54.20
44843;DHT22;31884;52.538;13.820;2022-09-17T13:19:43;16.80;46.50
44843;DHT22;31884;52.538;13.820;2022-09-17T13:22:30;16.90;45.60
44843;DHT22;31884;52.538;13.820;2022-09-17T13:25:18;16.80;46.00
44843;DHT22;31884;52.538;13.820;2022-09-17T13:27:45;16.70;47.10
44843;DHT22;31884;52.538;13.820;2022-09-17T13:30:13;16.60;47.20
44843;DHT22;31884;52.538;13.820;2022-09-17T13:37:35;16.20;47.40
44843;DHT22;31884;52.538;13.820;2022-09-17T13:40:02;16.20;47.60
44843;DHT22;31884;52.538;13.820;2022-09-17T13:42:30;16.20;47.90
44843;DHT22;31884;52.538;13.820;2022-09-17T13:45:09;16.30;48.00
44843;DHT22;31884;52.538;13.820;2022-09-17T13:47:49;16.40;48.40
44843;DHT22;31884;52.538;13.820;2022-09-17T13:50:31;16.50;49.10
44843;DHT22;31884;52.538;13.820;2022-09-17T13:52:58;16.60;47.70
44843;DHT22;31884;52.538;13.820;2022-09-17T13:58:09;16.60;48.50
44843;DHT22;31884;52.538;13.820;2022-09-17T14:13:54;16.50;43.80
44843;DHT22;31884;52.538;13.820;2022-09-17T14:19:33;16.40;41.70
44843;DHT22;31884;52.538;13.820;2022-09-17T14:33:04;16.00;44.60
44843;DHT22;31884;52.538;13.820;2022-09-17T14:35:35;16.00;45.20
44843;DHT22;31884;52.538;13.820;2022-09-17T14:38:22;16.00;45.80
44843;DHT22;31884;52.538;13.820;2022-09-17T14:40:57;16.00;45.60
44843;DHT22;31884;52.538;13.820;2022-09-17T14:43:47;16.00;43.50
44843;DHT22;31884;52.538;13.820;2022-09-17T14:46:30;15.90;36.20
44843;DHT22;31884;52.538;13.820;2022-09-17T14:49:25;15.80;38.40
44843;DHT22;31884;52.538;13.820;2022-09-17T14:51:56;15.80;37.40
44843;DHT22;31884;52.538;13.820;2022-09-17T14:54:29;15.70;39.20
44843;DHT22;31884;52.538;13.820;2022-09-17T14:56:59;15.60;39.20
44843;DHT22;31884;52.538;13.820;2022-09-17T14:59:46;15.60;39.60
44843;DHT22;31884;52.538;13.820;2022-09-17T15:02:41;15.40;39.80
44843;DHT22;31884;52.538;13.820;2022-09-17T15:08:12;15.20;41.70
44843;DHT22;31884;52.538;13.820;2022-09-17T15:10:54;15.20;42.70
44843;DHT22;31884;52.538;13.820;2022-09-17T15:13:40;15.10;43.30
44843;DHT22;31884;52.538;13.820;2022-09-17T15:16:12;15.10;44.00
44843;DHT22;31884;52.538;13.820;2022-09-17T15:18:42;15.20;44.60
44843;DHT22;31884;52.538;13.820;2022-09-17T15:21:33;15.30;44.80
44843;DHT22;31884;52.538;13.820;2022-09-17T15:24:40;15.40;45.60
44843;DHT22;31884;52.538;13.820;2022-09-17T15:27:12;15.50;44.80
44843;DHT22;31884;52.538;13.820;2022-09-17T15:29:43;15.50;45.20
44843;DHT22;31884;52.538;13.820;2022-09-17T15:32:11;15.40;45.70
44843;DHT22;31884;52.538;13.820;2022-09-17T15:34:37;15.40;45.40
44843;DHT22;31884;52.538;13.820;2022-09-17T15:37:17;15.30;44.90
44843;DHT22;31884;52.538;13.820;2022-09-17T15:39:49;15.20;44.40
44843;DHT22;31884;52.538;13.820;2022-09-17T15:42:21;15.10;44.20
44843;DHT22;31884;52.538;13.820;2022-09-17T15:44:48;15.00;44.50
44843;DHT22;31884;52.538;13.820;2022-09-17T15:47:47;14.90;45.20
44843;DHT22;31884;52.538;13.820;2022-09-17T15:50:19;14.80;45.30
44843;DHT22;31884;52.538;13.820;2022-09-17T15:52:46;14.70;45.60
44843;DHT22;31884;52.538;13.820;2022-09-17T15:55:38;14.60;45.00
44843;DHT22;31884;52.538;13.820;2022-09-17T15:58:28;14.40;44.90
44843;DHT22;31884;52.538;13.820;2022-09-17T16:08:54;14.10;46.80
44843;DHT22;31884;52.538;13.820;2022-09-17T16:11:22;14.00;47.20
44843;DHT22;31884;52.538;13.820;2022-09-17T16:13:49;14.00;47.70
44843;DHT22;31884;52.538;13.820;2022-09-17T16:16:17;14.00;48.30
44843;DHT22;31884;52.538;13.820;2022-09-17T16:18:43;14.00;49.80
44843;DHT22;31884;52.538;13.820;2022-09-17T16:21:13;13.90;49.40
44843;DHT22;31884;52.538;13.820;2022-09-17T16:23:39;13.80;49.80
44843;DHT22;31884;52.538;13.820;2022-09-17T16:26:05;13.80;50.20
44843;DHT22;31884;52.538;13.820;2022-09-17T16:28:32;13.80;51.90
44843;DHT22;31884;52.538;13.820;2022-09-17T16:30:58;13.80;51.10
44843;DHT22;31884;52.538;13.820;2022-09-17T16:33:24;13.70;50.20
44843;DHT22;31884;52.538;13.820;2022-09-17T16:35:55;13.60;49.90
44843;DHT22;31884;52.538;13.820;2022-09-17T16:38:21;13.60;49.90
44843;DHT22;31884;52.538;13.820;2022-09-17T16:40:46;13.50;50.10
44843;DHT22;31884;52.538;13.820;2022-09-17T16:43:12;13.40;50.10
44843;DHT22;31884;52.538;13.820;2022-09-17T16:45:37;13.30;50.90
44843;DHT22;31884;52.538;13.820;2022-09-17T16:48:04;13.20;51.20
44843;DHT22;31884;52.538;13.820;2022-09-17T16:50:30;13.20;51.80
44843;DHT22;31884;52.538;13.820;2022-09-17T16:52:56;13.00;52.50
44843;DHT22;31884;52.538;13.820;2022-09-17T16:55:21;13.00;53.60
44843;DHT22;31884;52.538;13.820;2022-09-17T16:57:47;12.90;53.40
44843;DHT22;31884;52.538;13.820;2022-09-17T17:00:16;12.80;53.70
44843;DHT22;31884;52.538;13.820;2022-09-17T17:02:49;12.60;53.60
44843;DHT22;31884;52.538;13.820;2022-09-17T17:05:15;12.60;54.10
44843;DHT22;31884;52.538;13.820;2022-09-17T17:07:40;12.50;54.50
44843;DHT22;31884;52.538;13.820;2022-09-17T17:10:06;12.40;55.50
44843;DHT22;31884;52.538;13.820;2022-09-17T17:12:33;12.30;55.30
44843;DHT22;31884;52.538;13.820;2022-09-17T17:15:00;12.20;55.70
44843;DHT22;31884;52.538;13.820;2022-09-17T17:17:26;12.20;56.80
44843;DHT22;31884;52.538;13.820;2022-09-17T17:19:52;12.00;57.70
44843;DHT22;31884;52.538;13.820;2022-09-17T17:22:17;12.00;58.30
44843;DHT22;31884;52.538;13.820;2022-09-17T17:24:43;12.00;58.70
44843;DHT22;31884;52.538;13.820;2022-09-17T17:27:08;12.10;60.20
44843;DHT22;31884;52.538;13.820;2022-09-17T17:29:34;12.10;59.00
44843;DHT22;31884;52.538;13.820;2022-09-17T17:32:02;12.00;59.70
44843;DHT22;31884;52.538;13.820;2022-09-17T17:34:27;12.00;59.90
44843;DHT22;31884;52.538;13.820;2022-09-17T17:36:53;12.10;59.30
44843;DHT22;31884;52.538;13.820;2022-09-17T17:39:19;12.10;60.00
44843;DHT22;31884;52.538;13.820;2022-09-17T17:41:44;12.10;59.50
44843;DHT22;31884;52.538;13.820;2022-09-17T17:44:10;12.20;60.00
44843;DHT22;31884;52.538;13.820;2022-09-17T17:46:40;12.10;60.00
44843;DHT22;31884;52.538;13.820;2022-09-17T17:49:06;12.20;60.10
44843;DHT22;31884;52.538;13.820;2022-09-17T17:51:33;12.20;59.80
44843;DHT22;31884;52.538;13.820;2022-09-17T17:53:59;12.20;60.90
44843;DHT22;31884;52.538;13.820;2022-09-17T17:56:24;12.20;59.90
44843;DHT22;31884;52.538;13.820;2022-09-17T17:58:55;12.20;59.70
44843;DHT22;31884;52.538;13.820;2022-09-17T18:01:29;12.20;59.70
44843;DHT22;31884;52.538;13.820;2022-09-17T18:03:57;12.20;59.90
44843;DHT22;31884;52.538;13.820;2022-09-17T18:06:23;12.20;60.30
44843;DHT22;31884;52.538;13.820;2022-09-17T18:08:49;12.20;59.90
44843;DHT22;31884;52.538;13.820;2022-09-17T18:11:14;12.30;60.30
44843;DHT22;31884;52.538;13.820;2022-09-17T18:13:40;12.20;60.00
44843;DHT22;31884;52.538;13.820;2022-09-17T18:16:06;12.30;60.30
44843;DHT22;31884;52.538;13.820;2022-09-17T18:18:38;12.30;60.60
44843;DHT22;31884;52.538;13.820;2022-09-17T18:21:06;12.30;60.60
44843;DHT22;31884;52.538;13.820;2022-09-17T18:23:34;12.30;60.80
44843;DHT22;31884;52.538;13.820;2022-09-17T18:26:01;12.30;62.40
44843;DHT22;31884;52.538;13.820;2022-09-17T18:28:28;12.30;61.70
44843;DHT22;31884;52.538;13.820;2022-09-17T18:30:54;12.30;61.70
44843;DHT22;31884;52.538;13.820;2022-09-17T18:33:22;12.30;62.50
44843;DHT22;31884;52.538;13.820;2022-09-17T18:35:52;12.30;62.30
44843;DHT22;31884;52.538;13.820;2022-09-17T18:38:22;12.30;62.40
44843;DHT22;31884;52.538;13.820;2022-09-17T18:40:48;12.30;62.70